Time;durP1;ratioP1;P1;durP2;ratioP2;P2;SDS_P1;SDS_P2;PMS_P1;PMS_P2;Temp;Humidity;BMP_temperature;BMP_pressure;BME280_temperature;BME280_humidity;BME280_pressure;Samples;Min_cycle;Max_cycle;Signal;HPM_P1;HPM_P2
2022/08/26 00:00:56;;;;;;;6.32;4.45;;;;;;;;;;5082612;28;20021;-68
2022/08/26 00:03:42;;;;;;;4.93;4.18;;;;;;;;;;5092698;28;20016;-68
2022/08/26 00:06:29;;;;;;;6.15;4.40;;;;;;;;;;5076127;28;20021;-68
2022/08/26 00:09:15;;;;;;;13.05;6.07;;;;;;;;;;5075987;28;20020;-70
2022/08/26 00:12:01;;;;;;;7.38;4.82;;;;;;;;;;5070179;28;20522;-71
2022/08/26 00:14:46;;;;;;;4.85;3.90;;;;;;;;;;5074430;28;20037;-70
2022/08/26 00:17:32;;;;;;;7.70;4.53;;;;;;;;;;5079089;28;20121;-70
2022/08/26 00:20:19;;;;;;;6.45;4.43;;;;;;;;;;5078563;28;20417;-70
2022/08/26 00:23:05;;;;;;;6.15;4.50;;;;;;;;;;5085142;28;20126;-69
2022/08/26 00:25:51;;;;;;;6.45;4.53;;;;;;;;;;5078775;28;20024;-75
2022/08/26 00:28:37;;;;;;;4.55;3.58;;;;;;;;;;5079377;28;20044;-63
2022/08/26 00:31:22;;;;;;;7.22;4.85;;;;;;;;;;5086754;28;20548;-62
2022/08/26 00:34:09;;;;;;;5.95;4.57;;;;;;;;;;5095601;28;20036;-64
2022/08/26 00:36:54;;;;;;;8.18;4.60;;;;;;;;;;5092906;28;20127;-63
2022/08/26 00:39:40;;;;;;;7.40;4.40;;;;;;;;;;5085961;28;20522;-63
2022/08/26 00:42:26;;;;;;;8.13;4.85;;;;;;;;;;5088548;28;20124;-63
2022/08/26 00:45:13;;;;;;;6.22;4.50;;;;;;;;;;5082778;28;20063;-70
2022/08/26 00:48:00;;;;;;;6.97;4.50;;;;;;;;;;5076657;28;20020;-70
2022/08/26 00:50:52;;;;;;;9.60;4.78;;;;;;;;;;5089407;28;20035;-70
2022/08/26 00:53:40;;;;;;;8.93;5.30;;;;;;;;;;5072689;28;20060;-70
2022/08/26 00:56:37;;;;;;;6.80;4.60;;;;;;;;;;5082646;28;20108;-70
2022/08/26 00:59:22;;;;;;;8.20;4.45;;;;;;;;;;5079057;28;20723;-70
2022/08/26 01:02:08;;;;;;;7.93;4.60;;;;;;;;;;5078917;28;20069;-66
2022/08/26 01:04:56;;;;;;;8.35;4.35;;;;;;;;;;5082295;28;20032;-70
2022/08/26 01:07:41;;;;;;;5.30;4.18;;;;;;;;;;5077825;28;20456;-69
2022/08/26 01:10:27;;;;;;;5.65;4.47;;;;;;;;;;5082079;28;20042;-70
2022/08/26 01:13:13;;;;;;;8.50;4.45;;;;;;;;;;5082009;28;20032;-69
2022/08/26 01:16:01;;;;;;;6.57;4.05;;;;;;;;;;5082218;28;20509;-69
2022/08/26 01:18:47;;;;;;;7.60;4.70;;;;;;;;;;5086909;28;20395;-69
2022/08/26 01:21:39;;;;;;;7.35;4.72;;;;;;;;;;5084196;28;20031;-75
2022/08/26 01:24:27;;;;;;;7.57;5.05;;;;;;;;;;5080441;28;20096;-68
2022/08/26 01:27:14;;;;;;;8.05;4.78;;;;;;;;;;5070876;28;20016;-68
2022/08/26 01:30:00;;;;;;;6.30;4.88;;;;;;;;;;5076720;28;20090;-67
2022/08/26 01:32:47;;;;;;;7.63;5.03;;;;;;;;;;5084799;28;20043;-68
2022/08/26 01:35:33;;;;;;;5.93;4.60;;;;;;;;;;5089751;28;20027;-67
2022/08/26 01:38:19;;;;;;;8.50;4.72;;;;;;;;;;5077042;28;20051;-68
2022/08/26 01:41:06;;;;;;;6.40;4.32;;;;;;;;;;5084243;28;20378;-68
2022/08/26 01:43:53;;;;;;;8.98;4.57;;;;;;;;;;5074551;28;20399;-68
2022/08/26 01:46:39;;;;;;;6.43;4.60;;;;;;;;;;5084235;28;20034;-67
2022/08/26 01:49:25;;;;;;;7.70;4.97;;;;;;;;;;5077308;28;20032;-68
2022/08/26 01:52:14;;;;;;;6.20;4.63;;;;;;;;;;5079707;28;20500;-67
2022/08/26 01:55:00;;;;;;;5.95;4.40;;;;;;;;;;5081929;28;20560;-66
2022/08/26 01:57:48;;;;;;;5.85;4.57;;;;;;;;;;5076110;28;20415;-73
2022/08/26 02:00:34;;;;;;;6.70;4.43;;;;;;;;;;5067211;28;20019;-75
2022/08/26 02:03:23;;;;;;;8.23;4.88;;;;;;;;;;5091084;28;20042;-75
2022/08/26 02:06:08;;;;;;;6.38;4.85;;;;;;;;;;5076836;28;20024;-75
2022/08/26 02:08:56;;;;;;;6.70;5.03;;;;;;;;;;5078894;28;20029;-76
2022/08/26 02:11:41;;;;;;;7.32;5.03;;;;;;;;;;5059777;28;20056;-75
2022/08/26 02:14:29;;;;;;;10.00;5.57;;;;;;;;;;5075139;28;20035;-64
2022/08/26 02:17:16;;;;;;;6.88;4.57;;;;;;;;;;5090981;28;20015;-63
2022/08/26 02:20:02;;;;;;;7.00;4.72;;;;;;;;;;5079975;28;20024;-65
2022/08/26 02:22:48;;;;;;;8.98;3.72;;;;;;;;;;5079609;28;20036;-65
2022/08/26 02:25:40;;;;;;;6.82;5.03;;;;;;;;;;5071725;28;20474;-63
2022/08/26 02:28:27;;;;;;;7.30;4.70;;;;;;;;;;5081544;28;20036;-64
2022/08/26 02:31:12;;;;;;;6.90;5.22;;;;;;;;;;5089969;28;20063;-65
2022/08/26 02:34:11;;;;;;;8.63;5.03;;;;;;;;;;5084717;28;20028;-63
2022/08/26 02:37:03;;;;;;;7.45;5.07;;;;;;;;;;5071745;28;20020;-72
2022/08/26 02:39:48;;;;;;;9.07;4.30;;;;;;;;;;5085479;28;20054;-74
2022/08/26 02:42:34;;;;;;;7.30;5.40;;;;;;;;;;5082684;28;20479;-72
2022/08/26 02:45:19;;;;;;;7.47;5.45;;;;;;;;;;5081612;28;20039;-73
2022/08/26 02:48:12;;;;;;;5.65;4.40;;;;;;;;;;5078016;28;20035;-72
2022/08/26 02:50:59;;;;;;;5.70;4.30;;;;;;;;;;5085776;28;20487;-64
2022/08/26 02:53:45;;;;;;;8.40;4.93;;;;;;;;;;5079449;28;20053;-75
2022/08/26 02:56:32;;;;;;;6.10;4.53;;;;;;;;;;5078593;28;20103;-63
2022/08/26 02:59:17;;;;;;;6.65;4.75;;;;;;;;;;5079255;28;20024;-62
2022/08/26 03:02:03;;;;;;;9.10;5.07;;;;;;;;;;5079934;28;20107;-64
2022/08/26 03:04:49;;;;;;;6.63;4.72;;;;;;;;;;5080883;28;20032;-62
2022/08/26 03:07:35;;;;;;;7.10;4.82;;;;;;;;;;5071923;28;20086;-64
2022/08/26 03:10:21;;;;;;;9.23;4.50;;;;;;;;;;5086700;28;20027;-65
2022/08/26 03:13:06;;;;;;;8.20;4.63;;;;;;;;;;5077708;28;20067;-65
2022/08/26 03:15:52;;;;;;;8.00;4.30;;;;;;;;;;5078787;28;20032;-66
2022/08/26 03:18:38;;;;;;;6.70;4.72;;;;;;;;;;5085151;28;20023;-65
2022/08/26 03:21:23;;;;;;;6.65;4.47;;;;;;;;;;5079582;28;20116;-65
2022/08/26 03:24:10;;;;;;;7.22;4.45;;;;;;;;;;5075634;28;20051;-64
2022/08/26 03:26:55;;;;;;;6.60;4.47;;;;;;;;;;5073028;28;20028;-68
2022/08/26 03:32:45;;;;;;;10.63;5.22;;;;;;;;;;5079247;28;20020;-64
2022/08/26 03:35:31;;;;;;;7.60;4.95;;;;;;;;;;5082738;28;20078;-64
2022/08/26 03:38:21;;;;;;;7.97;5.10;;;;;;;;;;5055790;28;20452;-65
2022/08/26 03:41:07;;;;;;;8.95;4.93;;;;;;;;;;5064716;28;20028;-66
2022/08/26 03:43:53;;;;;;;8.70;5.38;;;;;;;;;;5070933;28;20016;-65
2022/08/26 03:46:39;;;;;;;8.75;5.53;;;;;;;;;;5081637;28;20050;-65
2022/08/26 03:49:25;;;;;;;8.40;4.93;;;;;;;;;;5083583;28;20115;-72
2022/08/26 03:52:10;;;;;;;5.85;4.35;;;;;;;;;;5075600;28;20090;-72
2022/08/26 03:54:56;;;;;;;9.88;4.90;;;;;;;;;;5073983;28;20446;-71
2022/08/26 03:57:41;;;;;;;10.25;4.78;;;;;;;;;;5079313;28;20066;-71
2022/08/26 04:00:27;;;;;;;6.65;4.88;;;;;;;;;;5078031;28;20490;-71
2022/08/26 04:03:56;;;;;;;8.75;5.07;;;;;;;;;;5083463;28;20020;-71
2022/08/26 04:06:18;;;;;;;7.80;5.18;;;;;;;;;;5070222;28;20377;-65
2022/08/26 04:09:06;;;;;;;5.53;4.45;;;;;;;;;;5084362;28;20024;-75
2022/08/26 04:11:52;;;;;;;9.02;5.20;;;;;;;;;;5082789;28;20418;-79
2022/08/26 04:14:38;;;;;;;9.30;5.15;;;;;;;;;;5082711;28;20075;-76
2022/08/26 04:17:25;;;;;;;7.15;5.10;;;;;;;;;;5079572;28;20359;-75
2022/08/26 04:20:12;;;;;;;6.45;4.82;;;;;;;;;;5075785;28;20043;-75
2022/08/26 04:22:58;;;;;;;10.00;5.13;;;;;;;;;;5081722;28;20028;-63
2022/08/26 04:25:43;;;;;;;5.90;4.43;;;;;;;;;;5076194;28;20875;-66
2022/08/26 04:28:29;;;;;;;7.07;4.82;;;;;;;;;;5076710;28;20648;-68
2022/08/26 04:31:16;;;;;;;6.45;4.60;;;;;;;;;;5071267;28;20029;-68
2022/08/26 04:34:01;;;;;;;7.53;5.22;;;;;;;;;;5084370;28;20032;-72
2022/08/26 04:36:47;;;;;;;7.43;4.65;;;;;;;;;;5072555;28;20143;-69
2022/08/26 04:39:33;;;;;;;8.93;4.75;;;;;;;;;;5057792;28;20029;-68
2022/08/26 04:42:19;;;;;;;9.30;5.65;;;;;;;;;;5076156;28;20021;-76
2022/08/26 04:45:04;;;;;;;9.50;5.15;;;;;;;;;;5059932;28;20383;-70
2022/08/26 04:47:55;;;;;;;6.88;5.05;;;;;;;;;;5077605;28;20023;-69
2022/08/26 04:50:41;;;;;;;6.63;5.15;;;;;;;;;;5068958;28;20108;-70
2022/08/26 04:53:27;;;;;;;8.35;4.97;;;;;;;;;;5072511;28;20048;-69
2022/08/26 04:56:13;;;;;;;7.97;5.32;;;;;;;;;;5078971;28;20020;-69
2022/08/26 04:58:58;;;;;;;9.52;5.03;;;;;;;;;;5078815;28;20065;-70
2022/08/26 05:01:46;;;;;;;6.03;4.82;;;;;;;;;;5076281;28;20047;-64
2022/08/26 05:04:32;;;;;;;7.38;5.05;;;;;;;;;;5073179;28;20081;-67
2022/08/26 05:07:18;;;;;;;6.55;4.95;;;;;;;;;;5075370;28;20020;-67
2022/08/26 05:10:03;;;;;;;7.63;4.88;;;;;;;;;;5082504;28;20024;-67
2022/08/26 05:12:49;;;;;;;6.90;4.90;;;;;;;;;;5081313;28;20028;-67
2022/08/26 05:15:35;;;;;;;6.82;4.38;;;;;;;;;;5063153;28;20100;-65
2022/08/26 05:18:21;;;;;;;7.38;4.93;;;;;;;;;;5089659;28;20433;-69
2022/08/26 05:21:07;;;;;;;6.80;4.93;;;;;;;;;;5081384;28;20032;-66
2022/08/26 05:23:56;;;;;;;8.88;5.45;;;;;;;;;;5087931;28;20475;-65
2022/08/26 05:26:42;;;;;;;8.30;5.70;;;;;;;;;;5077738;28;20040;-65
2022/08/26 05:29:27;;;;;;;6.40;4.43;;;;;;;;;;5082780;28;20020;-66
2022/08/26 05:32:14;;;;;;;10.82;4.78;;;;;;;;;;5085576;28;20021;-65
2022/08/26 05:34:59;;;;;;;6.15;5.10;;;;;;;;;;5088950;28;20552;-65
2022/08/26 05:37:45;;;;;;;6.65;4.90;;;;;;;;;;5078035;28;20013;-72
2022/08/26 05:40:33;;;;;;;8.48;4.97;;;;;;;;;;5062496;28;20064;-77
2022/08/26 05:43:19;;;;;;;5.68;4.32;;;;;;;;;;5089855;28;20394;-76
2022/08/26 05:46:05;;;;;;;6.07;4.70;;;;;;;;;;5082658;28;20540;-77
2022/08/26 05:48:51;;;;;;;6.65;4.57;;;;;;;;;;5078913;28;20023;-76
2022/08/26 05:51:37;;;;;;;6.88;4.55;;;;;;;;;;5081012;28;20024;-77
2022/08/26 05:54:23;;;;;;;5.68;4.25;;;;;;;;;;5084309;28;20044;-77
2022/08/26 05:57:10;;;;;;;6.55;4.82;;;;;;;;;;5084208;28;20477;-64
2022/08/26 05:59:56;;;;;;;7.15;5.13;;;;;;;;;;5070695;28;20068;-72
2022/08/26 06:02:42;;;;;;;7.75;5.47;;;;;;;;;;5065348;28;20103;-73
2022/08/26 06:05:27;;;;;;;6.95;4.68;;;;;;;;;;5081603;28;20115;-71
2022/08/26 06:08:13;;;;;;;6.50;5.13;;;;;;;;;;5081276;28;20008;-70
2022/08/26 06:10:59;;;;;;;8.80;4.85;;;;;;;;;;5067374;28;20111;-70
2022/08/26 06:13:45;;;;;;;7.78;4.90;;;;;;;;;;5087540;28;20090;-62
2022/08/26 06:16:33;;;;;;;6.05;4.43;;;;;;;;;;5086920;28;20058;-63
2022/08/26 06:19:20;;;;;;;7.63;4.70;;;;;;;;;;5091089;28;20106;-64
2022/08/26 06:25:36;;;;;;;7.05;4.97;;;;;;;;;;5083340;28;20027;-65
2022/08/26 06:28:16;;;;;;;6.05;4.30;;;;;;;;;;5085293;28;20020;-64
2022/08/26 06:31:02;;;;;;;6.45;4.75;;;;;;;;;;5081524;28;20039;-65
2022/08/26 06:33:48;;;;;;;8.10;4.95;;;;;;;;;;5087980;28;20102;-80
2022/08/26 06:36:34;;;;;;;9.05;4.60;;;;;;;;;;5075640;28;20074;-61
2022/08/26 06:39:20;;;;;;;7.78;4.93;;;;;;;;;;5078116;28;20059;-64
2022/08/26 06:42:06;;;;;;;10.95;5.65;;;;;;;;;;5080023;28;20078;-62
2022/08/26 06:44:51;;;;;;;6.88;4.68;;;;;;;;;;5079108;28;20020;-63
2022/08/26 06:47:37;;;;;;;7.88;5.70;;;;;;;;;;5078868;28;20512;-64
2022/08/26 06:50:23;;;;;;;8.63;5.10;;;;;;;;;;5078904;28;20020;-69
2022/08/26 06:53:09;;;;;;;9.05;5.18;;;;;;;;;;5080242;28;20048;-79
2022/08/26 06:55:55;;;;;;;9.05;5.28;;;;;;;;;;5080536;28;20518;-79
2022/08/26 06:58:41;;;;;;;9.10;4.07;;;;;;;;;;5077083;28;20028;-79
2022/08/26 07:01:31;;;;;;;8.40;4.53;;;;;;;;;;5084293;28;20055;-78
2022/08/26 07:04:17;;;;;;;8.65;4.50;;;;;;;;;;5087550;28;20016;-79
2022/08/26 07:07:02;;;;;;;6.72;4.53;;;;;;;;;;5077211;28;20051;-80
2022/08/26 07:09:48;;;;;;;7.35;4.65;;;;;;;;;;5079446;28;20095;-65
2022/08/26 07:12:34;;;;;;;9.27;4.80;;;;;;;;;;5076770;28;20027;-72
2022/08/26 07:15:20;;;;;;;6.10;4.00;;;;;;;;;;5078029;28;20518;-69
2022/08/26 07:18:07;;;;;;;7.05;4.40;;;;;;;;;;5082406;28;20063;-70
2022/08/26 07:20:53;;;;;;;8.57;4.30;;;;;;;;;;5080502;28;20020;-71
2022/08/26 07:23:39;;;;;;;7.20;4.43;;;;;;;;;;5084884;28;20063;-73
2022/08/26 07:26:26;;;;;;;9.88;4.80;;;;;;;;;;5090687;28;20023;-75
2022/08/26 07:29:13;;;;;;;13.75;4.63;;;;;;;;;;5082396;28;20104;-67
2022/08/26 07:31:59;;;;;;;7.85;4.05;;;;;;;;;;5078715;28;20486;-68
2022/08/26 07:34:44;;;;;;;7.68;4.15;;;;;;;;;;5082220;28;20040;-68
2022/08/26 07:37:30;;;;;;;6.82;4.13;;;;;;;;;;5052426;28;20032;-67
2022/08/26 07:40:16;;;;;;;6.35;4.18;;;;;;;;;;5074090;28;20024;-65
2022/08/26 07:43:02;;;;;;;6.15;3.88;;;;;;;;;;5084413;28;20020;-67
2022/08/26 07:45:48;;;;;;;5.72;4.00;;;;;;;;;;5083729;28;20024;-67
2022/08/26 07:48:35;;;;;;;4.75;3.80;;;;;;;;;;5076636;28;20012;-69
2022/08/26 07:51:21;;;;;;;7.10;3.67;;;;;;;;;;5087258;28;20024;-68
2022/08/26 07:54:06;;;;;;;6.70;3.60;;;;;;;;;;5059827;28;20484;-68
2022/08/26 07:56:52;;;;;;;6.45;4.00;;;;;;;;;;5079554;28;20024;-69
2022/08/26 07:59:37;;;;;;;6.00;3.55;;;;;;;;;;5078283;28;20025;-67
2022/08/26 08:02:24;;;;;;;6.22;3.63;;;;;;;;;;5075737;28;20031;-70
2022/08/26 08:05:10;;;;;;;5.75;4.30;;;;;;;;;;5061048;28;20027;-65
2022/08/26 08:07:56;;;;;;;8.25;4.00;;;;;;;;;;5077222;28;20530;-64
2022/08/26 08:10:43;;;;;;;10.02;5.03;;;;;;;;;;5072565;28;20031;-61
2022/08/26 08:13:28;;;;;;;8.15;4.85;;;;;;;;;;5081655;28;20036;-63
2022/08/26 08:16:14;;;;;;;7.72;4.97;;;;;;;;;;5086758;28;20020;-63
2022/08/26 08:18:59;;;;;;;7.50;4.68;;;;;;;;;;5089230;28;20037;-64
2022/08/26 08:21:45;;;;;;;8.02;4.22;;;;;;;;;;5086102;28;20108;-63
2022/08/26 08:24:34;;;;;;;9.93;5.15;;;;;;;;;;5090267;28;20028;-67
2022/08/26 08:27:20;;;;;;;9.50;4.93;;;;;;;;;;5075953;28;20020;-69
2022/08/26 08:30:06;;;;;;;5.57;4.25;;;;;;;;;;5082167;28;20036;-69
2022/08/26 08:32:52;;;;;;;7.88;4.50;;;;;;;;;;5086571;28;20027;-70
2022/08/26 08:35:38;;;;;;;9.85;4.60;;;;;;;;;;5082910;28;20020;-69
2022/08/26 08:38:24;;;;;;;8.13;3.83;;;;;;;;;;5070168;28;20024;-69
2022/08/26 08:41:28;;;;;;;10.45;3.97;;;;;;;;;;5083029;28;20103;-64
2022/08/26 08:44:21;;;;;;;6.22;3.65;;;;;;;;;;5082529;28;20027;-68
2022/08/26 08:47:29;;;;;;;7.95;4.30;;;;;;;;;;5085733;28;20513;-70
2022/08/26 08:50:32;;;;;;;8.02;4.20;;;;;;;;;;5063998;28;20024;-70
2022/08/26 08:53:21;;;;;;;6.80;4.00;;;;;;;;;;5082459;28;20056;-69
2022/08/26 08:56:22;;;;;;;7.10;4.40;;;;;;;;;;5086598;28;20028;-72
2022/08/26 08:59:49;;;;;;;6.20;4.18;;;;;;;;;;5078337;28;20173;-68
2022/08/26 09:02:41;;;;;;;5.57;3.47;;;;;;;;;;5023536;28;20079;-68
2022/08/26 09:05:33;;;;;;;4.38;3.05;;;;;;;;;;5028259;28;20038;-67
2022/08/26 09:08:21;;;;;;;7.30;3.70;;;;;;;;;;5021470;28;20080;-71
2022/08/26 09:11:07;;;;;;;6.75;4.13;;;;;;;;;;5028100;28;20532;-69
2022/08/26 09:13:54;;;;;;;8.93;4.18;;;;;;;;;;5025352;28;20044;-70
2022/08/26 09:16:42;;;;;;;5.93;4.10;;;;;;;;;;5026223;28;20025;-71
2022/08/26 09:19:38;;;;;;;6.28;3.38;;;;;;;;;;5021204;28;20097;-69
2022/08/26 09:22:33;;;;;;;8.40;4.15;;;;;;;;;;5022000;28;20034;-66
2022/08/26 09:25:19;;;;;;;6.68;3.65;;;;;;;;;;5031624;28;20021;-67
2022/08/26 09:28:09;;;;;;;6.50;3.85;;;;;;;;;;5018401;28;20025;-68
2022/08/26 09:31:15;;;;;;;10.13;3.60;;;;;;;;;;5020491;28;20152;-68
2022/08/26 09:34:04;;;;;;;6.30;3.92;;;;;;;;;;5075521;28;20047;-66
2022/08/26 09:36:52;;;;;;;5.72;4.15;;;;;;;;;;5074415;28;20025;-66
2022/08/26 09:39:38;;;;;;;6.88;4.15;;;;;;;;;;5063522;28;20035;-65
2022/08/26 09:42:24;;;;;;;8.65;4.35;;;;;;;;;;5079586;28;20020;-64
2022/08/26 09:45:11;;;;;;;5.78;3.95;;;;;;;;;;5088200;28;20056;-65
2022/08/26 09:47:57;;;;;;;13.25;4.63;;;;;;;;;;5083781;28;20024;-63
2022/08/26 09:50:53;;;;;;;9.65;4.43;;;;;;;;;;5076060;28;20028;-63
2022/08/26 09:53:50;;;;;;;8.20;4.50;;;;;;;;;;5072454;28;20443;-64
2022/08/26 09:56:37;;;;;;;4.88;3.53;;;;;;;;;;5072058;28;20025;-62
2022/08/26 09:59:28;;;;;;;8.20;4.88;;;;;;;;;;5075484;28;20028;-72
2022/08/26 10:02:34;;;;;;;6.10;4.05;;;;;;;;;;5063883;28;20475;-70
2022/08/26 10:05:28;;;;;;;5.72;3.45;;;;;;;;;;5073477;28;20024;-70
2022/08/26 10:08:22;;;;;;;6.05;4.35;;;;;;;;;;5057817;28;20115;-68
2022/08/26 10:11:21;;;;;;;9.93;4.43;;;;;;;;;;5081417;28;20391;-68
2022/08/26 10:14:08;;;;;;;7.18;4.65;;;;;;;;;;5085096;28;20440;-63
2022/08/26 10:17:00;;;;;;;9.03;4.80;;;;;;;;;;5083248;28;20024;-67
2022/08/26 10:19:50;;;;;;;9.48;4.90;;;;;;;;;;5078674;28;20099;-69
2022/08/26 10:22:35;;;;;;;6.18;4.18;;;;;;;;;;5075531;28;20372;-68
2022/08/26 10:25:39;;;;;;;9.27;4.40;;;;;;;;;;5070891;28;20024;-69
2022/08/26 10:28:25;;;;;;;12.60;6.05;;;;;;;;;;5061156;28;20403;-69
2022/08/26 10:31:23;;;;;;;12.70;5.80;;;;;;;;;;5069920;28;20081;-71
2022/08/26 10:34:09;;;;;;;11.85;5.90;;;;;;;;;;5083919;28;20068;-71
2022/08/26 10:36:56;;;;;;;9.00;5.07;;;;;;;;;;5078642;28;20039;-70
2022/08/26 10:39:51;;;;;;;9.85;5.53;;;;;;;;;;5072874;28;20063;-71
2022/08/26 10:42:54;;;;;;;14.50;5.35;;;;;;;;;;5083092;28;20023;-70
2022/08/26 10:45:46;;;;;;;12.45;5.80;;;;;;;;;;5078383;28;20059;-70
2022/08/26 10:48:31;;;;;;;9.35;5.25;;;;;;;;;;5070879;28;20029;-72
2022/08/26 10:51:20;;;;;;;10.70;5.15;;;;;;;;;;5078818;28;20414;-73
2022/08/26 10:54:29;;;;;;;10.18;6.95;;;;;;;;;;5071394;28;20123;-65
2022/08/26 10:57:19;;;;;;;11.85;5.40;;;;;;;;;;5080853;28;20020;-64
2022/08/26 11:03:16;;;;;;;10.52;6.25;;;;;;;;;;5085051;28;20020;-64
2022/08/26 11:06:19;;;;;;;8.93;5.75;;;;;;;;;;5082989;28;20032;-65
2022/08/26 11:09:06;;;;;;;9.43;6.18;;;;;;;;;;5087755;28;20395;-70
2022/08/26 11:11:52;;;;;;;11.50;5.38;;;;;;;;;;5059746;28;20082;-74
2022/08/26 11:14:37;;;;;;;10.07;5.13;;;;;;;;;;5081388;28;20377;-73
2022/08/26 11:17:42;;;;;;;11.07;5.70;;;;;;;;;;5064787;28;20056;-75
2022/08/26 11:20:32;;;;;;;10.25;5.32;;;;;;;;;;5087505;28;20433;-73
2022/08/26 11:23:21;;;;;;;11.55;5.40;;;;;;;;;;5077879;28;20038;-71
2022/08/26 11:26:11;;;;;;;10.52;5.15;;;;;;;;;;5086670;28;20368;-71
2022/08/26 11:28:57;;;;;;;8.32;5.57;;;;;;;;;;5076816;28;20099;-74
2022/08/26 11:31:53;;;;;;;8.38;4.72;;;;;;;;;;5083469;28;20028;-71
2022/08/26 11:34:50;;;;;;;8.40;4.93;;;;;;;;;;5087009;28;20047;-72
2022/08/26 11:37:41;;;;;;;8.45;5.13;;;;;;;;;;5084086;28;20081;-71
2022/08/26 11:40:30;;;;;;;8.40;5.25;;;;;;;;;;5088524;28;20065;-68
2022/08/26 11:43:18;;;;;;;11.35;5.60;;;;;;;;;;5088670;28;20479;-70
2022/08/26 11:46:09;;;;;;;10.82;5.32;;;;;;;;;;5083745;28;20483;-63
2022/08/26 11:49:04;;;;;;;12.65;5.60;;;;;;;;;;5075283;28;20386;-81
2022/08/26 11:51:49;;;;;;;9.50;5.15;;;;;;;;;;5082410;28;20513;-76
2022/08/26 11:54:35;;;;;;;11.48;5.30;;;;;;;;;;5079284;28;20028;-79
2022/08/26 11:57:21;;;;;;;14.02;5.57;;;;;;;;;;5075364;28;20032;-73
2022/08/26 12:00:10;;;;;;;12.70;5.93;;;;;;;;;;5075394;28;20024;-69
2022/08/26 12:02:56;;;;;;;;;;;;;;;;;;5066211;28;20020;-61
2022/08/26 12:05:42;;;;;;;7.78;5.03;;;;;;;;;;5084016;28;19954;-70
2022/08/26 12:08:29;;;;;;;13.70;6.22;;;;;;;;;;5086699;28;20035;-69
2022/08/26 12:11:20;;;;;;;11.45;5.40;;;;;;;;;;5082857;28;20020;-66
2022/08/26 12:14:08;;;;;;;8.88;5.30;;;;;;;;;;5076669;28;20039;-66
2022/08/26 12:16:54;;;;;;;8.18;5.53;;;;;;;;;;5084179;28;20024;-65
2022/08/26 12:19:39;;;;;;;12.07;4.97;;;;;;;;;;5078241;28;20453;-66
2022/08/26 12:22:26;;;;;;;11.20;4.80;;;;;;;;;;5074638;28;20059;-71
2022/08/26 12:25:12;;;;;;;11.45;5.78;;;;;;;;;;5078868;28;20082;-65
2022/08/26 12:28:02;;;;;;;9.48;5.78;;;;;;;;;;5084159;28;20438;-63
2022/08/26 12:30:58;;;;;;;12.00;5.53;;;;;;;;;;5080861;28;20370;-63
2022/08/26 12:33:43;;;;;;;8.10;5.00;;;;;;;;;;5085408;28;20043;-66
2022/08/26 12:36:30;;;;;;;10.00;5.43;;;;;;;;;;5082413;28;20288;-64
2022/08/26 12:39:27;;;;;;;11.95;5.93;;;;;;;;;;5074758;28;20047;-66
2022/08/26 12:42:16;;;;;;;11.23;5.35;;;;;;;;;;5076533;28;20382;-77
2022/08/26 12:45:05;;;;;;;10.32;5.72;;;;;;;;;;5086339;28;20053;-66
2022/08/26 12:47:53;;;;;;;8.95;5.28;;;;;;;;;;5073628;28;20403;-66
2022/08/26 12:50:44;;;;;;;13.10;7.13;;;;;;;;;;5068061;28;20029;-66
2022/08/26 12:53:31;;;;;;;11.98;6.22;;;;;;;;;;5075754;28;20127;-63
2022/08/26 12:56:26;;;;;;;10.10;5.28;;;;;;;;;;5076187;28;20023;-68
2022/08/26 12:59:22;;;;;;;10.23;5.43;;;;;;;;;;5076292;28;20491;-66
2022/08/26 13:02:08;;;;;;;11.63;5.70;;;;;;;;;;5084418;28;20062;-68
2022/08/26 13:04:57;;;;;;;8.60;5.32;;;;;;;;;;5081276;28;20050;-70
2022/08/26 13:07:42;;;;;;;10.70;5.82;;;;;;;;;;5084024;28;20036;-69
2022/08/26 13:10:35;;;;;;;9.63;6.10;;;;;;;;;;5086000;28;20025;-73
2022/08/26 13:13:21;;;;;;;17.30;6.75;;;;;;;;;;5077783;28;20024;-70
2022/08/26 13:16:08;;;;;;;11.10;6.22;;;;;;;;;;5063884;28;20382;-76
2022/08/26 13:18:58;;;;;;;9.07;5.22;;;;;;;;;;5087624;28;20030;-72
2022/08/26 13:21:48;;;;;;;14.52;6.57;;;;;;;;;;5079781;28;20020;-74
2022/08/26 13:24:35;;;;;;;9.63;5.80;;;;;;;;;;5084035;28;20043;-74
2022/08/26 13:27:22;;;;;;;13.52;7.18;;;;;;;;;;5085714;28;20013;-72
2022/08/26 13:30:08;;;;;;;14.55;5.75;;;;;;;;;;5085634;28;20028;-76
2022/08/26 13:32:56;;;;;;;10.77;5.32;;;;;;;;;;5073956;28;20062;-73
2022/08/26 13:35:42;;;;;;;7.67;5.20;;;;;;;;;;5086407;28;20059;-67
2022/08/26 13:38:28;;;;;;;8.50;5.55;;;;;;;;;;5083404;28;20117;-68
2022/08/26 13:41:13;;;;;;;11.55;6.50;;;;;;;;;;5085409;28;20094;-67
2022/08/26 13:43:59;;;;;;;11.98;6.20;;;;;;;;;;5075781;28;20166;-68
2022/08/26 13:46:45;;;;;;;12.68;7.10;;;;;;;;;;5081070;28;20020;-67
2022/08/26 13:49:30;;;;;;;15.45;7.03;;;;;;;;;;5083439;28;20395;-68
2022/08/26 13:52:16;;;;;;;9.10;6.20;;;;;;;;;;5078369;28;20426;-68
2022/08/26 13:55:02;;;;;;;14.27;7.30;;;;;;;;;;5076531;28;20043;-67
2022/08/26 13:57:48;;;;;;;19.02;7.35;;;;;;;;;;5085804;28;20054;-68
2022/08/26 14:00:34;;;;;;;15.25;8.45;;;;;;;;;;5080967;28;20059;-68
2022/08/26 14:03:19;;;;;;;18.20;8.43;;;;;;;;;;5067857;28;20054;-68
2022/08/26 14:06:05;;;;;;;14.45;7.80;;;;;;;;;;5079542;28;20095;-67
2022/08/26 14:08:50;;;;;;;15.38;8.50;;;;;;;;;;5091086;28;20036;-67
2022/08/26 14:11:36;;;;;;;20.40;7.88;;;;;;;;;;5096782;28;20031;-72
2022/08/26 14:14:22;;;;;;;14.95;7.55;;;;;;;;;;5089623;28;20065;-73
2022/08/26 14:17:08;;;;;;;21.35;7.90;;;;;;;;;;5075238;28;20061;-75
2022/08/26 14:19:53;;;;;;;11.95;7.32;;;;;;;;;;5090327;28;20429;-79
2022/08/26 14:22:41;;;;;;;13.70;7.22;;;;;;;;;;5076842;28;20047;-75
2022/08/26 14:25:26;;;;;;;14.85;7.45;;;;;;;;;;5085601;28;20030;-74
2022/08/26 14:28:12;;;;;;;17.58;6.55;;;;;;;;;;5078609;28;20039;-75
2022/08/26 14:30:58;;;;;;;13.25;7.07;;;;;;;;;;5068307;28;20016;-69
2022/08/26 14:33:43;;;;;;;12.68;6.75;;;;;;;;;;5090030;28;20028;-63
2022/08/26 14:36:32;;;;;;;15.93;7.55;;;;;;;;;;5088880;28;20043;-64
2022/08/26 14:39:17;;;;;;;14.40;7.20;;;;;;;;;;5073660;28;20024;-64
2022/08/26 14:42:03;;;;;;;11.02;6.82;;;;;;;;;;5083193;28;20099;-64
2022/08/26 14:44:52;;;;;;;13.13;6.88;;;;;;;;;;5092809;28;20016;-63
2022/08/26 14:47:38;;;;;;;11.25;7.05;;;;;;;;;;5085125;28;20479;-63
2022/08/26 14:50:24;;;;;;;14.02;6.88;;;;;;;;;;5078037;28;20040;-69
2022/08/26 14:56:14;;;;;;;10.20;6.00;;;;;;;;;;5087357;28;20027;-70
2022/08/26 14:59:00;;;;;;;16.58;6.68;;;;;;;;;;5085640;28;20061;-74
2022/08/26 15:01:46;;;;;;;13.75;7.38;;;;;;;;;;5078576;28;20086;-69
2022/08/26 15:04:31;;;;;;;12.52;6.72;;;;;;;;;;5088598;28;20467;-71
2022/08/26 15:07:17;;;;;;;14.32;6.60;;;;;;;;;;5085826;28;20024;-74
2022/08/26 15:10:04;;;;;;;15.75;5.95;;;;;;;;;;5069269;28;20020;-68
2022/08/26 15:12:49;;;;;;;11.55;6.55;;;;;;;;;;5081948;28;20027;-63
2022/08/26 15:15:36;;;;;;;10.93;6.93;;;;;;;;;;5082719;28;20031;-65
2022/08/26 15:18:22;;;;;;;12.25;6.00;;;;;;;;;;5092242;28;20135;-65
2022/08/26 15:21:07;;;;;;;14.95;6.72;;;;;;;;;;5079598;28;20024;-64
2022/08/26 15:23:53;;;;;;;12.30;6.90;;;;;;;;;;5087257;28;20016;-77
2022/08/26 15:26:39;;;;;;;12.52;6.03;;;;;;;;;;5088203;28;20024;-87
2022/08/26 15:29:24;;;;;;;10.50;5.38;;;;;;;;;;5065707;28;20039;-79
2022/08/26 15:32:11;;;;;;;10.63;6.18;;;;;;;;;;5079724;28;20447;-80
2022/08/26 15:34:56;;;;;;;12.50;6.07;;;;;;;;;;5081726;28;20036;-77
2022/08/26 15:37:42;;;;;;;11.05;5.60;;;;;;;;;;5076981;28;20052;-77
2022/08/26 15:40:27;;;;;;;14.95;6.05;;;;;;;;;;5072525;28;20060;-77
2022/08/26 15:43:13;;;;;;;10.40;5.30;;;;;;;;;;5079200;28;20111;-77
2022/08/26 15:45:59;;;;;;;11.45;4.82;;;;;;;;;;5082160;28;20067;-76
2022/08/26 15:48:45;;;;;;;9.65;5.38;;;;;;;;;;5067150;28;20078;-75
2022/08/26 15:51:33;;;;;;;10.73;5.40;;;;;;;;;;5076632;28;20471;-75
2022/08/26 15:54:20;;;;;;;10.13;5.40;;;;;;;;;;5075361;28;20040;-75
2022/08/26 15:57:05;;;;;;;12.57;5.93;;;;;;;;;;5084602;28;20020;-76
2022/08/26 15:59:51;;;;;;;11.55;5.43;;;;;;;;;;5059858;28;20115;-76
2022/08/26 16:02:37;;;;;;;10.20;5.28;;;;;;;;;;5085770;28;20027;-71
2022/08/26 16:05:22;;;;;;;9.98;6.15;;;;;;;;;;5089892;28;20032;-72
2022/08/26 16:08:08;;;;;;;13.48;5.57;;;;;;;;;;5080373;28;20028;-78
2022/08/26 16:10:54;;;;;;;6.18;4.43;;;;;;;;;;5067991;28;20387;-78
2022/08/26 16:13:39;;;;;;;7.47;4.15;;;;;;;;;;5051950;28;20059;-77
2022/08/26 16:16:25;;;;;;;5.70;4.18;;;;;;;;;;5061151;28;20047;-77
2022/08/26 16:19:11;;;;;;;6.43;3.80;;;;;;;;;;5090927;28;20448;-78
2022/08/26 16:21:57;;;;;;;7.22;3.88;;;;;;;;;;5087391;28;20475;-74
2022/08/26 16:24:42;;;;;;;8.70;4.75;;;;;;;;;;5087396;28;20150;-72
2022/08/26 16:27:28;;;;;;;8.07;4.38;;;;;;;;;;5076181;28;20024;-72
2022/08/26 16:30:13;;;;;;;11.85;6.28;;;;;;;;;;5100173;28;20020;-72
2022/08/26 16:32:59;;;;;;;14.48;6.65;;;;;;;;;;5080883;28;20020;-72
2022/08/26 16:35:44;;;;;;;16.02;7.05;;;;;;;;;;5089998;28;20020;-73
2022/08/26 16:38:30;;;;;;;15.07;6.57;;;;;;;;;;5077497;28;20032;-73
2022/08/26 16:41:16;;;;;;;11.13;6.40;;;;;;;;;;5089067;28;20360;-76
2022/08/26 16:44:02;;;;;;;12.23;5.70;;;;;;;;;;5092663;28;21276;-78
2022/08/26 16:46:47;;;;;;;10.07;5.75;;;;;;;;;;5074030;28;20491;-78
2022/08/26 16:49:33;;;;;;;9.05;5.78;;;;;;;;;;5073337;28;20086;-77
2022/08/26 16:52:18;;;;;;;12.30;5.25;;;;;;;;;;5084297;28;20153;-77